Overview Statistics Trail Chart Weather Telemetry Raw packets
 

This is the latest recevied weather packets stored in our database for station/object DD6UBW. If no packets are shown the sender has not sent any weather packets the latest 10 day(s).

<< 4 5 6 7 8 9 10 >>
Time Temp. Humidity Pressure Rain* Wind** Luminosity Snow
1788337801 18.89° C 65% 1019.6 hPa 0 mm - - -
1788336001 18.89° C 67% 1019.6 hPa 0 mm - - -
1788334200 17.78° C 71% 1019.6 hPa 0 mm - - -
1788332401 17.22° C 76% 1019.6 hPa 0 mm - - -
1788330600 16.11° C 80% 1019.6 hPa 0 mm - - -
1788328800 15.56° C 85% 1019.6 hPa 0 mm - - -
1788327000 13.89° C 89% 1019.6 hPa 0 mm - - -
1788325200 12.78° C 89% 1019.6 hPa 0 mm - - -
1788323401 11.67° C 89% 1019.6 hPa 0 mm - - -
1788321600 11.67° C 89% 1018.6 hPa 0 mm - - -
1788319801 12.22° C 88% 1018.6 hPa 0 mm - - -
1788318000 12.78° C 88% 1018.6 hPa 0 mm - - -
1788316202 13.33° C 88% 1018.6 hPa 0 mm - - -
1788314400 13.33° C 87% 1018.6 hPa 0 mm - - -
1788312600 13.89° C 87% 1018.6 hPa 0 mm - - -
1788310800 14.44° C 86% 1018.6 hPa 0 mm - - -
1788309000 15° C 85% 1018.6 hPa 0 mm - - -
1788307200 15° C 84% 1018.6 hPa 0 mm - - -
1788305400 16.11° C 82% 1018.6 hPa 0 mm - - -
1788303600 16.67° C 81% 1018.6 hPa 0 mm - - -
1788301801 16.67° C 78% 1017.6 hPa 0 mm - - -
1788300001 17.22° C 76% 1017.6 hPa 0.51 mm - - -
1788298200 17.78° C 74% 1017.6 hPa 0.51 mm - - -
1788296401 17.78° C 72% 1017.6 hPa 0.51 mm - - -
1788294601 18.89° C 68% 1017.6 hPa 0.51 mm - - -

* Rain since midnight (hover to see other rain measurements)
** Current wind speed in m/s (hover to see current wind gust speed)